Data for 06/24/2009

Time Sea-Level Adjusted Pressure Absolute Pressure Temperature Relative Humidity Dew Point   
(mb) (inHg) (mb) (inHg) (C) (F) (%) (C) (F)
00:05 1018 30.06 847 25.01 12.3 54.2 57 4.1 39.4
00:10 1018 30.06 847 25.01 12.1 53.8 57 3.9 39
00:15 1018 30.06 847 25.01 12 53.7 57 3.8 38.8
00:20 1018 30.06 847 25.01 12 53.6 55 3.3 38
00:25 1018 30.06 847 25.01 12.2 53.9 54 3.3 38
00:30 1018 30.06 847 25.01 12.2 53.9 54 3.3 38
00:35 1018 30.06 847 25.01 12.2 54 54 3.1 37.7
00:40 1018 30.06 847 25.01 12.4 54.2 52 2.9 37.3
00:45 1018 30.06 847 25.01 12.5 54.4 52 2.9 37.2
00:50 1018 30.06 847 25.01 12.7 54.8 51 2.8 37
00:55 1018 30.06 847 25.01 12.3 54.2 52 2.8 37
01:00 1018 30.06 847 25.01 12.2 53.9 52 2.7 36.9
01:05 1018 30.06 847 25.01 12.2 54 51 2.4 36.4
01:10 1018 30.06 847 25.01 12.4 54.2 50 2.4 36.3
01:15 1018 30.06 847 25.01 12.3 54.1 50 2.1 35.9
01:20 1018 30.06 847 25.01 12.3 54.2 48 1.6 34.9
01:25 1018 30.06 847 25.01 12.4 54.2 48 1.7 35
01:30 1018 30.06 847 25.01 12 53.6 47 1.2 34.2
01:35 1018 30.06 847 25.01 12.3 54.2 46 1 33.8
01:40 1018 30.06 847 25.01 12.6 54.7 45 1 33.9
01:45 1018 30.06 847 25.01 12.7 54.9 45 1.1 34
01:50 1018 30.06 847 25.01 12.7 54.9 46 1.4 34.6
01:55 1018 30.06 847 25.01 12.7 54.8 46 1.4 34.6
02:00 1018 30.06 847 25.01 12.7 54.9 46 1.4 34.4
02:05 1018 30.06 847 25.01 12.9 55.1 46 1.5 34.7
02:10 1018 30.06 847 25.01 12.9 55.1 45 1.2 34.2
02:15 1018 30.06 847 25.01 12.8 55 43 0.7 33.2
02:20 1018 30.06 847 25.01 12.4 54.2 46 1 33.8
02:25 1018 30.06 847 25.01 11.8 53.2 45 0.1 32.3
02:30 1018 30.06 847 25.01 11.9 53.4 45 0.4 32.8
02:35 1018 30.06 847 25.01 12.1 53.7 46 0.9 33.7
02:40 1018 30.06 847 25.01 11.7 53.1 44 0.1 32.1
02:45 1018 30.06 847 25.01 11.9 53.4 45 0.3 32.5
02:50 1018 30.06 847 25.01 11.9 53.4 44 0.1 32.2
02:55 1018 30.06 847 25.01 11.6 52.9 45 0.3 32.5
03:00 1018 30.06 847 25.01 11.3 52.3 46 0.3 32.5
03:05 1018 30.06 847 25.01 11.1 51.9 47 0.2 32.3
03:10 1018 30.06 847 25.01 11.1 51.9 47 0.2 32.4
03:15 1018 30.06 847 25.01 10.9 51.6 46 -0.4 31.4
03:20 1018 30.06 847 25.01 10.9 51.5 47 0 32
03:25 1018 30.06 847 25.01 10.5 50.8 45 -1 30.2
03:30 1018 30.06 847 25.01 11 51.7 43 -1.1 30.1
03:35 1018 30.06 847 25.01 10.8 51.5 48 0.4 32.6
03:40 1018 30.06 847 25.01 10.1 50.2 48 -0.3 31.4
03:45 1018 30.06 847 25.01 10.3 50.6 48 -0.1 31.8
03:50 1018 30.06 847 25.01 10 50 51 0.4 32.7
03:55 1018 30.06 847 25.01 9.5 49.2 52 0.2 32.4
04:00 1018 30.06 847 25.01 9.6 49.2 48 -0.7 30.7
04:05 1018 30.06 847 25.01 9.9 49.8 50 -0.1 31.8
04:10 1018 30.06 847 25.01 9.9 49.7 49 -0.2 31.6
04:15 1018 30.06 847 25.01 9.6 49.4 49 -0.6 30.9
04:20 1018 30.06 847 25.01 9.9 49.7 49 -0.2 31.7
04:25 1018 30.06 847 25.01 9.8 49.6 52 0.3 32.6
04:30 1018 30.06 847 25.01 9.5 49.1 51 -0 32
04:35 1018 30.06 847 25.01 9.6 49.3 50 -0.2 31.7
04:40 1018 30.06 847 25.01 9.9 49.8 50 -0 31.9
04:45 1018 30.06 847 25.01 10 50 49 -0.3 31.5
04:50 1018 30.06 847 25.01 9.8 49.7 50 -0.1 31.7
04:55 1018 30.06 847 25.01 9.6 49.2 51 -0.2 31.7
05:00 1018 30.06 847 25.01 9.3 48.8 53 0.2 32.4
05:05 1018 30.06 847 25.01 9 48.3 53 -0 32
05:10 1018 30.06 848 25.04 9 48.1 53 -0.2 31.7
05:15 1018 30.06 848 25.04 9.4 48.8 49 -0.8 30.5
05:20 1018 30.06 848 25.04 9.7 49.5 49 -0.3 31.4
05:25 1018 30.06 848 25.04 9.5 49 52 0 32.1
05:30 1019 30.09 848 25.04 9.2 48.5 52 -0.2 31.6
05:35 1019 30.09 848 25.04 9.1 48.3 51 -0.4 31.3
05:40 1019 30.09 848 25.04 9.3 48.7 53 0.2 32.3
05:45 1019 30.09 848 25.04 8.7 47.7 55 0.3 32.6
05:50 1019 30.09 848 25.04 8.8 47.8 53 -0.4 31.4
05:55 1019 30.09 848 25.04 8.9 48.1 56 0.8 33.4
06:00 1019 30.09 848 25.04 8.5 47.2 57 0.5 32.9
06:05 1019 30.09 848 25.04 8.3 47 59 0.8 33.4
06:10 1019 30.09 848 25.04 8.2 46.7 60 0.9 33.7
06:15 1019 30.09 848 25.04 8.4 47.1 58 0.6 33.1
06:20 1019 30.09 848 25.04 8.7 47.7 57 0.8 33.5
06:25 1019 30.09 848 25.04 8.8 47.9 58 1 33.8
06:30 1019 30.09 848 25.04 8.6 47.4 59 1.1 33.9
06:35 1019 30.09 848 25.04 8.5 47.2 61 1.5 34.6
06:40 1019 30.09 848 25.04 8.2 46.8 63 1.6 35
06:45 1019 30.09 848 25.04 8.4 47.1 62 1.5 34.7
06:50 1019 30.09 848 25.04 8.7 47.7 61 1.7 35
06:55 1019 30.09 848 25.04 9.3 48.7 59 1.7 35.1
07:00 1019 30.09 848 25.04 9.6 49.2 57 1.6 34.9
07:05 1019 30.09 849 25.07 10 50.1 56 1.7 35.1
07:10 1019 30.09 849 25.07 10.1 50.3 56 1.8 35.3
07:15 1019 30.09 849 25.07 10.5 50.9 54 1.7 35.1
07:20 1019 30.09 849 25.07 11.2 52.2 53 2.1 35.8
07:25 1019 30.09 849 25.07 11.7 53.1 52 2.3 36.1
07:30 1019 30.09 849 25.07 12.2 54 52 2.7 36.9
07:35 1019 30.09 849 25.07 12.5 54.5 51 2.8 37
07:40 1019 30.09 849 25.07 12.7 54.8 53 3.3 37.9
07:45 1020 30.12 849 25.07 13.3 55.9 51 3.5 38.3
07:50 1020 30.12 849 25.07 13.8 56.8 50 3.5 38.4
07:55 1020 30.12 849 25.07 14.3 57.7 47 3.3 38
08:00 1020 30.12 849 25.07 14.7 58.5 48 3.9 38.9
08:05 1020 30.12 849 25.07 15 59 46 3.5 38.4
08:10 1020 30.12 849 25.07 15.1 59.3 45 3.5 38.3
08:15 1020 30.12 849 25.07 15.3 59.6 47 4.1 39.4
08:20 1020 30.12 849 25.07 15.6 60 44 3.4 38.1
08:25 1020 30.12 849 25.07 16.1 61.1 39 2.4 36.3
08:30 1020 30.12 849 25.07 15.9 60.5 39 1.9 35.4
08:35 1020 30.12 849 25.07 16.4 61.5 38 2.2 36
08:40 1020 30.12 849 25.07 16.5 61.7 38 2.3 36.1
08:45 1020 30.12 849 25.07 16.9 62.5 38 2.5 36.5
08:50 1020 30.12 849 25.07 17.4 63.3 37 2.6 36.7
08:55 1020 30.12 849 25.07 17.9 64.2 36 2.6 36.6
09:00 1020 30.12 849 25.07 18.4 65 34 2.2 35.9
09:05 1020 30.12 849 25.07 18.3 65 34 2.5 36.4
09:10 1020 30.12 849 25.07 18.5 65.3 33 2.2 35.9
09:15 1020 30.12 849 25.07 18 64.4 36 2.7 36.8
09:20 1020 30.12 849 25.07 18 64.4 35 2.4 36.3
09:25 1020 30.12 849 25.07 18.6 65.4 33 2 35.7
09:30 1020 30.12 849 25.07 18.1 64.6 36 2.9 37.2
09:35 1020 30.12 849 25.07 17.2 63 35 1.8 35.2
09:40 1020 30.12 849 25.07 18.2 64.8 33 1.6 35
09:45 1020 30.12 849 25.07 19.2 66.5 32 2.3 36.1
09:50 1020 30.12 849 25.07 19.3 66.7 31 1.8 35.2
09:55 1020 30.12 849 25.07 19.1 66.4 32 2.3 36.2
10:00 1020 30.12 849 25.07 19.7 67.4 31 2.4 36.3
10:05 1020 30.12 849 25.07 19.5 67 34 3.4 38.2
10:10 1020 30.12 849 25.07 19.8 67.6 33 3 37.4
10:15 1020 30.12 849 25.07 19.6 67.4 32 2.8 37.1
10:20 1020 30.12 849 25.07 19.5 67.1 34 3.5 38.4
10:25 1020 30.12 849 25.07 19.8 67.7 33 3.4 38
10:30 1020 30.12 849 25.07 19.8 67.6 32 2.8 37
10:35 1020 30.12 849 25.07 20.4 68.7 31 3 37.4
10:40 1020 30.12 849 25.07 20.2 68.3 32 3 37.5
10:45 1020 30.12 849 25.07 20.7 69.3 31 3 37.3
10:50 1020 30.12 849 25.07 20.8 69.5 31 3 37.5
10:55 1020 30.12 849 25.07 20.7 69.3 32 3.6 38.5
11:00 1020 30.12 849 25.07 21.1 69.9 29 2.3 36.2
11:05 1020 30.12 849 25.07 22 71.5 26 1.7 35
11:10 1020 30.12 849 25.07 22 71.5 28 2.7 36.9
11:15 1020 30.12 849 25.07 21.5 70.7 29 2.9 37.1
11:20 1020 30.12 849 25.07 22.2 72 28 3.1 37.6
11:25 1020 30.12 849 25.07 22.3 72.1 28 3 37.3
11:30 1020 30.12 849 25.07 21.9 71.5 31 4.4 39.9
11:35 1020 30.12 849 25.07 22.1 71.8 30 3.8 38.8
11:40 1020 30.12 849 25.07 22.5 72.5 31 4.8 40.6
11:45 1020 30.12 849 25.07 22.3 72.2 29 3.8 38.8
11:50 1020 30.12 849 25.07 22.2 71.9 29 3.7 38.6
11:55 1020 30.12 849 25.07 21.2 70.1 32 4.2 39.5
12:00 1020 30.12 849 25.07 22.4 72.4 27 2.8 37.1
12:05 1020 30.12 849 25.07 22.7 72.9 29 3.9 39.1
12:10 1020 30.12 849 25.07 23 73.5 27 3.3 38
12:15 1020 30.12 849 25.07 23.1 73.5 28 4 39.3
12:20 1020 30.12 849 25.07 22.5 72.4 27 3 37.4
12:25 1020 30.12 849 25.07 22.8 73 28 3.7 38.7
12:30 1020 30.12 849 25.07 23.8 74.8 27 3.7 38.6
12:35 1020 30.12 849 25.07 23.8 74.9 26 3.5 38.3
12:40 1020 30.12 849 25.07 23.5 74.4 28 4 39.3
12:45 1020 30.12 849 25.07 23.7 74.6 26 3.3 38
12:50 1020 30.12 849 25.07 24.1 75.3 27 4 39.1
12:55 1020 30.12 849 25.07 24.5 76.2 26 3.9 39
13:00 1019 30.09 849 25.07 25.3 77.6 22 2.6 36.7
13:05 1019 30.09 849 25.07 25.9 78.5 24 3.9 39
13:10 1019 30.09 849 25.07 25.2 77.3 22 2.5 36.5
13:15 1019 30.09 849 25.07 25.9 78.6 22 2.8 37.1
13:20 1019 30.09 849 25.07 25.9 78.6 23 3.2 37.8
13:25 1019 30.09 848 25.04 26 78.7 23 3.3 38
13:30 1019 30.09 848 25.04 25.9 78.6 23 3.6 38.5
13:35 1019 30.09 848 25.04 25.9 78.7 25 4.6 40.4
13:40 1019 30.09 848 25.04 26.3 79.3 22 3 37.5
13:45 1019 30.09 848 25.04 26.8 80.2 21 3.2 37.7
13:50 1019 30.09 848 25.04 26.3 79.4 23 4 39.2
13:55 1019 30.09 848 25.04 25.7 78.2 23 3.4 38.2
14:00 1019 30.09 848 25.04 25.7 78.2 23 3.2 37.8
14:05 1019 30.09 848 25.04 26.1 79.1 22 3.3 38
14:10 1019 30.09 848 25.04 26.3 79.4 23 3.6 38.4
14:15 1019 30.09 848 25.04 26.1 78.9 22 2.7 36.9
14:20 1019 30.09 848 25.04 26.3 79.3 23 3.6 38.4
14:25 1019 30.09 848 25.04 26.1 78.9 21 2.5 36.5
14:30 1019 30.09 848 25.04 26.6 79.8 23 4 39.2
14:35 1018 30.06 848 25.04 26.8 80.2 21 2.9 37.2
14:40 1018 30.06 848 25.04 27 80.7 22 3.5 38.3
14:45 1018 30.06 848 25.04 27.4 81.3 22 4.4 39.8
14:50 1018 30.06 848 25.04 26.7 80.1 21 2.8 37.1
14:55 1018 30.06 848 25.04 27.1 80.7 20 2.8 37.1
15:00 1018 30.06 848 25.04 27.5 81.4 20 3.1 37.6
15:05 1018 30.06 848 25.04 27.2 81 21 3.3 37.9
15:10 1018 30.06 848 25.04 27.3 81.1 21 3.2 37.8
15:15 1018 30.06 847 25.01 27.2 81 21 3.3 37.9
15:20 1018 30.06 847 25.01 26 78.8 22 2.9 37.2
15:25 1018 30.06 847 25.01 26.8 80.2 23 4.2 39.6
15:30 1018 30.06 847 25.01 27.1 80.8 21 3.3 37.9
15:35 1018 30.06 847 25.01 27.5 81.4 21 3.3 37.9
15:40 1018 30.06 847 25.01 26.4 79.6 22 3.5 38.4
15:45 1018 30.06 847 25.01 26.1 79 21 2.5 36.5
15:50 1018 30.06 847 25.01 26.8 80.2 20 2.6 36.6
15:55 1018 30.06 847 25.01 27.2 81 21 3 37.4
16:00 1018 30.06 847 25.01 26.6 80 22 3.5 38.3
16:05 1018 30.06 847 25.01 26.3 79.3 22 2.9 37.2
16:10 1018 30.06 847 25.01 26.5 79.6 21 2.4 36.3
16:15 1018 30.06 847 25.01 26.7 80 20 2.4 36.3
16:20 1018 30.06 847 25.01 26 78.7 22 2.6 36.7
16:25 1018 30.06 847 25.01 26.6 79.9 21 2.7 36.9
16:30 1018 30.06 847 25.01 27.3 81.1 21 3.3 37.9
16:35 1018 30.06 847 25.01 26.7 80.1 21 2.6 36.6
16:40 1018 30.06 847 25.01 27.6 81.7 20 2.7 36.9
16:45 1018 30.06 847 25.01 28.2 82.7 20 3.1 37.6
16:50 1018 30.06 847 25.01 27.7 81.9 19 2.2 35.9
16:55 1018 30.06 847 25.01 28.1 82.6 18 1.9 35.4
17:00 1018 30.06 847 25.01 27.8 82 21 3.6 38.6
17:05 1018 30.06 847 25.01 27.5 81.5 19 2.5 36.4
17:10 1018 30.06 847 25.01 27.6 81.7 19 2.3 36.1
17:15 1018 30.06 847 25.01 28 82.5 18 1.9 35.5
17:20 1018 30.06 847 25.01 27.7 81.8 18 1.7 35.1
17:25 1018 30.06 847 25.01 27.4 81.4 19 2.1 35.7
17:30 1018 30.06 847 25.01 28.1 82.5 19 2.5 36.4
17:35 1017 30.03 847 25.01 28.1 82.6 19 2.4 36.3
17:40 1017 30.03 847 25.01 27.7 81.9 19 1.9 35.5
17:45 1017 30.03 847 25.01 29 84.2 17 1.7 35.1
17:50 1017 30.03 846 24.98 28.9 84 18 2.5 36.4
17:55 1017 30.03 846 24.98 27.7 81.9 19 2 35.6
18:00 1017 30.03 846 24.98 27.3 81.2 20 2.6 36.6
18:05 1017 30.03 846 24.98 27.3 81.1 19 1.7 35.1
18:10 1017 30.03 846 24.98 27.3 81.1 19 1.8 35.3
18:15 1017 30.03 846 24.98 27.6 81.6 18 1.3 34.4
18:20 1017 30.03 846 24.98 27.3 81.2 19 1.9 35.5
18:25 1017 30.03 846 24.98 26.9 80.3 19 1.8 35.3
18:30 1017 30.03 846 24.98 27.5 81.6 18 1.8 35.2
18:35 1017 30.03 846 24.98 27.2 81 19 2.2 35.9
18:40 1017 30.03 846 24.98 27.5 81.4 19 2 35.6
18:45 1017 30.03 846 24.98 27.5 81.5 18 1.7 35
18:50 1017 30.03 846 24.98 27.5 81.5 19 2.1 35.8
18:55 1017 30.03 846 24.98 27.3 81.2 18 1.5 34.8
19:00 1017 30.03 846 24.98 28.1 82.5 18 1.7 35.1
19:05 1017 30.03 846 24.98 28.2 82.8 18 1.8 35.3
19:10 1017 30.03 846 24.98 27.7 81.8 18 1.8 35.2
19:15 1017 30.03 846 24.98 27.2 80.9 19 1.8 35.3
19:20 1017 30.03 846 24.98 27.3 81.2 19 1.9 35.3
19:25 1017 30.03 846 24.98 27.5 81.6 18 1.7 35
19:30 1017 30.03 846 24.98 27.6 81.7 19 2.3 36.1
19:35 1017 30.03 846 24.98 27.3 81.1 21 3.2 37.8
19:40 1017 30.03 846 24.98 26.9 80.5 22 3.6 38.4
19:45 1017 30.03 846 24.98 26.4 79.5 23 4.1 39.4
19:50 1017 30.03 846 24.98 26.1 79 22 3.1 37.6
19:55 1017 30.03 846 24.98 26 78.7 23 3.5 38.2
20:00 1017 30.03 846 24.98 26 78.8 22 3 37.4
20:05 1017 30.03 846 24.98 25.9 78.6 23 3.7 38.6
20:10 1017 30.03 846 24.98 25.8 78.4 23 3.2 37.8
20:15 1017 30.03 846 24.98 25.7 78.2 25 4.6 40.3
20:20 1017 30.03 846 24.98 25.2 77.3 27 5 40.9
20:25 1017 30.03 846 24.98 24.9 76.9 28 5.6 42.1
20:30 1017 30.03 846 24.98 24.8 76.6 28 5.5 41.9
20:35 1017 30.03 846 24.98 24.7 76.4 33 7.5 45.5
20:40 1017 30.03 846 24.98 24.6 76.3 32 6.9 44.3
20:45 1017 30.03 846 24.98 24.5 76.1 31 6.3 43.3
20:50 1017 30.03 846 24.98 24.3 75.8 30 5.7 42.2
20:55 1017 30.03 846 24.98 24.1 75.5 33 7.2 44.9
21:00 1017 30.03 846 24.98 23.7 74.6 39 8.9 48
21:05 1017 30.03 846 24.98 23.1 73.6 40 9 48.2
21:10 1017 30.03 846 24.98 22.6 72.7 43 9.6 49.2
21:15 1017 30.03 846 24.98 22.1 71.8 42 8.9 48
21:20 1017 30.03 846 24.98 21.7 71.1 41 8 46.5
21:25 1017 30.03 847 25.01 21.3 70.4 42 7.9 46.2
21:30 1017 30.03 847 25.01 21 69.7 43 7.9 46.3
21:35 1017 30.03 847 25.01 20.6 69.1 43 7.8 46
21:40 1017 30.03 847 25.01 20.2 68.3 49 9.4 48.9
21:45 1018 30.06 847 25.01 19.5 67.1 47 7.9 46.2
21:50 1018 30.06 847 25.01 19.3 66.8 51 9 48.2
21:55 1018 30.06 847 25.01 18.9 66.1 49 8.1 46.6
22:00 1018 30.06 847 25.01 18.9 66 46 7 44.7
22:05 1018 30.06 847 25.01 18.9 66 46 7 44.7
22:10 1018 30.06 847 25.01 18.8 65.8 43 6 42.8
22:15 1018 30.06 847 25.01 19 66.3 42 6.1 42.9
22:20 1018 30.06 847 25.01 19.2 66.6 41 5.6 42.2
22:25 1018 30.06 847 25.01 19.3 66.7 42 6.2 43.2
22:30 1018 30.06 847 25.01 19.2 66.5 42 6 42.7
22:35 1018 30.06 847 25.01 19.1 66.5 42 6 42.9
22:40 1018 30.06 847 25.01 19.2 66.6 41 5.6 42.1
22:45 1018 30.06 847 25.01 19.4 66.9 40 5.6 42.1
22:50 1018 30.06 847 25.01 19.3 66.7 41 5.8 42.4
22:55 1018 30.06 847 25.01 19.1 66.4 41 5.7 42.3
23:00 1018 30.06 847 25.01 19.1 66.4 42 5.9 42.7
23:05 1018 30.06 847 25.01 18.9 66 42 6 42.8
23:10 1017 30.03 847 25.01 18.9 66 37 3.9 39
23:15 1017 30.03 847 25.01 19.2 66.6 42 6.2 43.1
23:20 1017 30.03 847 25.01 19.3 66.7 40 5.5 41.8
23:25 1017 30.03 847 25.01 19.5 67.1 39 5.4 41.7
23:30 1017 30.03 847 25.01 19.2 66.5 41 5.7 42.2
23:35 1017 30.03 847 25.01 19 66.2 36 3.7 38.7
23:40 1017 30.03 847 25.01 19.3 66.8 41 5.8 42.5
23:45 1017 30.03 847 25.01 19.2 66.5 36 4 39.2
23:50 1017 30.03 847 25.01 19.7 67.5 38 5.3 41.5
23:55 1017 30.03 847 25.01 19.4 67 38 4.8 40.7
24:00 1017 30.03 847 25.01 19.3 66.8 38 4.7 40.5